Pagrindinis puslapis
METAR-TAF:

METAR-TAF

Oro uostai :

Sinop, Turkija

platuma: 42-00-57N, ilguma: 035-03-59E, Aukštis: 7 m

Dabartinis oras

Ataskaita buvo paskelbta 48 minutes, ne 05:50 UTC
Vėjas 10 kt iš Vakarų
Temperatūra 10°C
Drėgmė 71%
Slėgis 1017 hPa
Matomumas 10 km arba daugiau
nėra debesų žemiau 1500 m ir nėra kamuolinių lietaus debesų

METAR: LTCM 100550Z 27010KT CAVOK 10/05 Q1017

Laikas: 09:38 (06:38 UTC)

Prognozė

Ataskaita buvo paskelbta 1 valandą ir 58 minutes, ne 04:40 UTC
Prognozė galioja nuo 10 metu 06 UTC su 10 metu 15 UTC
Vėjas 13 kt iš Vakarų
Matomumas 10 km arba daugiau
nėra debesų žemiau 1500 m ir nėra kamuolinių lietaus debesų

TAF: LTCM 100440Z 1006/1015 28013KT CAVOK

Orai ataskaitas ir orų prognozės (METAR, TAF).

turimą stotys yra geltonos ir raudonos taškus žemėlapyje.

Perkelti pele per norėdami pamatyti stoties vardą.

Tada spustelėkite, norėdami matyti oro stebėjimo ir prognozės.

Norėdami pakeisti žemėlapį: spustelėkite ant žalios mygtukų su juodo kryžiaus žemyn,; žalią mygtuką su brūkšneliu, jei norite nutolinti; arba žalių rodyklių gretimoms žemėlapius.


METAR-TAF: